Time;durP1;ratioP1;P1;durP2;ratioP2;P2;SDS_P1;SDS_P2;PMS_P1;PMS_P2;Temp;Humidity;BMP_temperature;BMP_pressure;BME280_temperature;BME280_humidity;BME280_pressure;Samples;Min_cycle;Max_cycle;Signal;HPM_P1;HPM_P2
2022/07/29 00:01:20;;;;;;;2.30;2.10;;;;;;;-145.69;100.00;70859.19;5072827;28;20202;-83
2022/07/29 00:03:46;;;;;;;1.90;1.70;;;;;;;-145.69;100.00;70865.16;5072878;28;20653;-82
2022/07/29 00:06:14;;;;;;;1.65;1.55;;;;;;;-145.69;100.00;70867.16;5072663;28;20206;-82
2022/07/29 00:08:40;;;;;;;1.85;1.60;;;;;;;-145.69;100.00;70873.13;5073018;28;20198;-81
2022/07/29 00:11:07;;;;;;;2.08;1.75;;;;;;;-145.69;100.00;70859.19;5071668;28;20218;-79
2022/07/29 00:13:33;;;;;;;1.73;1.58;;;;;;;-145.69;100.00;70861.19;5072652;28;20199;-81
2022/07/29 00:16:01;;;;;;;2.92;1.40;;;;;;;-145.69;100.00;70875.13;5072638;28;20199;-80
2022/07/29 00:18:28;;;;;;;3.40;1.30;;;;;;;-145.69;100.00;70861.19;5072553;28;20205;-81
2022/07/29 00:20:55;;;;;;;2.17;1.20;;;;;;;-145.69;100.00;70853.22;5072251;28;20199;-81
2022/07/29 00:23:21;;;;;;;1.73;1.40;;;;;;;-145.69;100.00;70853.22;5072199;28;20195;-79
2022/07/29 00:25:48;;;;;;;4.78;1.20;;;;;;;-145.69;100.00;70855.22;5072415;28;20654;-84
2022/07/29 00:28:14;;;;;;;1.60;1.30;;;;;;;-145.69;100.00;70853.22;5075747;28;20203;-80
2022/07/29 00:30:42;;;;;;;1.75;1.10;;;;;;;-145.69;100.00;70843.28;5076242;28;20214;-81
2022/07/29 00:33:10;;;;;;;2.10;1.10;;;;;;;-145.69;100.00;70841.28;5076046;28;20234;-81
2022/07/29 00:35:45;;;;;;;4.72;1.33;;;;;;;-145.69;100.00;70855.22;5075991;28;20199;-81
2022/07/29 00:38:13;;;;;;;1.38;1.27;;;;;;;-145.69;100.00;70853.22;5076088;28;20666;-81
2022/07/29 00:40:40;;;;;;;1.70;1.35;;;;;;;-145.69;100.00;70853.22;5076037;28;20203;-82
2022/07/29 00:43:07;;;;;;;1.70;1.25;;;;;;;-145.69;100.00;70849.25;5076142;28;20202;-80
2022/07/29 00:45:33;;;;;;;1.40;1.30;;;;;;;-145.69;100.00;70869.16;5076012;28;20195;-80
2022/07/29 00:48:00;;;;;;;1.85;1.20;;;;;;;-145.69;100.00;70843.28;5075744;28;20222;-81
2022/07/29 00:50:28;;;;;;;2.38;1.90;;;;;;;-145.69;100.00;70873.13;5075826;28;20246;-82
2022/07/29 00:52:54;;;;;;;3.00;1.30;;;;;;;-145.69;100.00;70873.13;5075709;28;20218;-81
2022/07/29 00:55:21;;;;;;;2.10;1.75;;;;;;;-145.69;100.00;70879.09;5075868;28;20214;-81
2022/07/29 00:57:48;;;;;;;1.48;1.38;;;;;;;-145.69;100.00;70889.03;5075681;28;20199;-81
2022/07/29 01:00:18;;;;;;;5.38;1.70;;;;;;;-145.69;100.00;70928.84;5075441;28;20201;-81
2022/07/29 01:02:44;;;;;;;2.70;1.70;;;;;;;-145.69;100.00;70950.72;5075778;28;20202;-81
2022/07/29 01:05:12;;;;;;;2.88;1.83;;;;;;;-145.69;100.00;70964.66;5071129;28;20779;-82
2022/07/29 01:07:41;;;;;;;4.70;1.90;;;;;;;-145.69;100.00;70944.75;5075657;28;20242;-82
2022/07/29 01:10:09;;;;;;;3.47;1.98;;;;;;;-145.69;100.00;70964.66;5076182;28;20206;-82
2022/07/29 01:12:38;;;;;;;3.17;2.13;;;;;;;-145.69;100.00;70972.59;5062871;28;20235;-83
2022/07/29 01:15:07;;;;;;;2.22;2.03;;;;;;;-145.69;100.00;70976.59;5055320;28;20199;-82
2022/07/29 01:17:39;;;;;;;4.78;2.63;;;;;;;-145.69;100.00;70976.59;5055676;28;20539;-82
2022/07/29 01:20:11;;;;;;;2.22;2.03;;;;;;;-145.69;100.00;70984.53;5062634;28;20199;-83
2022/07/29 01:22:54;;;;;;;4.38;2.55;;;;;;;-145.69;100.00;70996.47;5054841;28;20440;-82
2022/07/29 01:25:49;;;;;;;2.85;2.30;;;;;;;-145.69;100.00;70998.47;5055245;28;20199;-81
2022/07/29 01:28:39;;;;;;;3.03;2.30;;;;;;;-145.69;100.00;70992.50;5055190;28;20643;-82
2022/07/29 01:31:07;;;;;;;5.18;2.38;;;;;;;-145.69;100.00;70974.59;5062197;28;20198;-79
2022/07/29 01:33:50;;;;;;;4.60;2.03;;;;;;;-145.69;100.00;70958.69;5075188;28;20222;-79
2022/07/29 01:36:26;;;;;;;2.55;2.08;;;;;;;-145.69;100.00;70948.72;5075201;28;20581;-78
2022/07/29 01:38:59;;;;;;;6.20;2.20;;;;;;;-145.69;100.00;70932.81;5074964;28;20217;-78
2022/07/29 01:41:31;;;;;;;2.85;1.92;;;;;;;-145.69;100.00;70940.78;5074877;28;20720;-79
2022/07/29 01:44:04;;;;;;;2.33;1.80;;;;;;;-145.69;100.00;70942.75;5075002;28;20202;-79
2022/07/29 01:46:34;;;;;;;4.85;2.22;;;;;;;-145.69;100.00;70950.72;5074579;28;20191;-78
2022/07/29 01:49:06;;;;;;;2.80;1.95;;;;;;;-145.69;100.00;70964.66;5074117;28;20445;-79
2022/07/29 01:51:38;;;;;;;3.30;2.03;;;;;;;-145.69;100.00;70974.59;5074841;28;20218;-78
2022/07/29 01:54:11;;;;;;;4.30;2.05;;;;;;;-145.69;100.00;70980.56;5074756;28;20297;-79
2022/07/29 01:56:39;;;;;;;2.92;1.90;;;;;;;-145.69;100.00;70988.53;5074599;28;20600;-79
2022/07/29 01:59:09;;;;;;;3.88;2.67;;;;;;;-145.69;100.00;70982.56;5074752;28;20586;-79
2022/07/29 02:01:36;;;;;;;4.65;2.65;;;;;;;-145.69;100.00;70996.47;5073938;28;20202;-79
2022/07/29 02:04:06;;;;;;;3.75;2.50;;;;;;;-145.69;100.00;70996.47;5074415;28;20649;-80
2022/07/29 02:06:34;;;;;;;5.50;2.80;;;;;;;-145.69;100.00;70992.50;5074371;28;20302;-78
2022/07/29 02:09:03;;;;;;;4.65;2.80;;;;;;;-145.69;100.00;70988.53;5074500;28;20195;-79
2022/07/29 02:11:31;;;;;;;5.53;2.88;;;;;;;-145.69;100.00;70988.53;5074505;28;20206;-81
2022/07/29 02:14:00;;;;;;;3.00;2.42;;;;;;;-145.69;100.00;70982.56;5074516;28;20199;-79
2022/07/29 02:16:31;;;;;;;3.78;2.83;;;;;;;-145.69;100.00;70976.59;5074516;28;20206;-78
2022/07/29 02:18:59;;;;;;;5.80;2.65;;;;;;;-145.69;100.00;70984.53;5074181;28;20209;-80
2022/07/29 02:21:27;;;;;;;3.40;2.58;;;;;;;-145.69;100.00;70992.50;5074155;28;20203;-80
2022/07/29 02:23:56;;;;;;;3.25;2.45;;;;;;;-145.69;100.00;70994.50;5073710;28;20297;-79
2022/07/29 02:26:26;;;;;;;2.78;2.38;;;;;;;-145.69;100.00;70994.50;5074217;28;20206;-81
2022/07/29 02:28:56;;;;;;;3.10;2.38;;;;;;;-145.69;100.00;70984.53;5073868;28;20199;-80
2022/07/29 02:31:25;;;;;;;5.90;2.90;;;;;;;-145.69;100.00;70992.50;5074100;28;20202;-81
2022/07/29 02:33:54;;;;;;;4.10;2.70;;;;;;;-145.69;100.00;70996.47;5072767;28;20732;-81
2022/07/29 02:36:23;;;;;;;3.15;2.33;;;;;;;-145.69;100.00;71008.41;5073713;28;20195;-80
2022/07/29 02:38:51;;;;;;;4.97;2.85;;;;;;;-145.69;100.00;71012.41;5074003;28;20199;-80
2022/07/29 02:41:20;;;;;;;3.42;2.20;;;;;;;-145.69;100.00;71020.34;5074021;28;20207;-79
2022/07/29 02:43:49;;;;;;;7.85;2.35;;;;;;;-145.69;100.00;71010.41;5073829;28;20210;-81
2022/07/29 02:46:21;;;;;;;3.45;2.60;;;;;;;-145.69;100.00;71002.44;5073709;28;20198;-79
2022/07/29 02:48:54;;;;;;;4.40;2.58;;;;;;;-145.69;100.00;71016.38;5073409;28;20203;-79
2022/07/29 02:51:28;;;;;;;2.95;2.30;;;;;;;-145.69;100.00;71024.34;5073358;28;20202;-80
2022/07/29 02:54:03;;;;;;;3.88;2.65;;;;;;;-145.69;100.00;71020.34;5073084;28;20222;-80
2022/07/29 02:56:34;;;;;;;8.40;2.85;;;;;;;-145.69;100.00;71034.28;5073655;28;20575;-81
2022/07/29 02:59:06;;;;;;;3.67;2.95;;;;;;;-145.69;100.00;71020.34;5073315;28;20234;-80
2022/07/29 03:01:35;;;;;;;4.32;3.00;;;;;;;-145.69;100.00;71032.28;5073598;28;20206;-81
2022/07/29 03:04:05;;;;;;;5.30;2.90;;;;;;;-145.69;100.00;71040.25;5073551;28;20294;-80
2022/07/29 03:06:35;;;;;;;5.90;3.30;;;;;;;-145.69;100.00;71056.16;5073324;28;20198;-80
2022/07/29 03:09:02;;;;;;;4.22;3.03;;;;;;;-145.69;100.00;71064.13;5073005;28;20232;-80
2022/07/29 03:11:30;;;;;;;4.35;3.10;;;;;;;-145.69;100.00;71080.06;5073219;28;20226;-80
2022/07/29 03:13:57;;;;;;;4.22;2.85;;;;;;;-145.69;100.00;71084.03;5070913;28;20223;-80
2022/07/29 03:16:24;;;;;;;4.27;3.43;;;;;;;-145.69;100.00;71078.06;5055014;28;20195;-80
2022/07/29 03:18:51;;;;;;;5.95;3.22;;;;;;;-145.69;100.00;71080.06;5053152;28;20238;-81
2022/07/29 03:21:18;;;;;;;4.20;3.35;;;;;;;-145.69;100.00;71084.03;5053086;28;20698;-80
2022/07/29 03:23:46;;;;;;;5.90;3.95;;;;;;;-145.69;100.00;71080.06;5053279;28;20203;-81
2022/07/29 03:26:12;;;;;;;7.50;3.60;;;;;;;-145.69;100.00;71090.00;5052997;28;20203;-80
2022/07/29 03:28:39;;;;;;;10.23;3.40;;;;;;;-145.69;100.00;71095.97;5053215;28;20210;-80
2022/07/29 03:31:05;;;;;;;7.65;3.70;;;;;;;-145.69;100.00;71095.97;5053115;28;20210;-81
2022/07/29 03:33:32;;;;;;;6.10;3.40;;;;;;;-145.69;100.00;71105.91;5052983;28;20255;-80
2022/07/29 03:36:02;;;;;;;6.65;4.10;;;;;;;-145.69;100.00;71105.91;5053008;28;20207;-80
2022/07/29 03:38:31;;;;;;;3.80;3.17;;;;;;;-145.69;100.00;71121.84;5053035;28;20203;-81
2022/07/29 03:41:06;;;;;;;4.30;3.47;;;;;;;-145.69;100.00;71133.78;5070296;28;20664;-81
2022/07/29 03:43:37;;;;;;;6.70;4.18;;;;;;;-145.69;100.00;71107.91;5073037;28;20777;-79
2022/07/29 03:46:08;;;;;;;6.05;4.38;;;;;;;-145.69;100.00;71111.88;5072874;28;20206;-80
2022/07/29 03:48:43;;;;;;;5.53;4.00;;;;;;;-145.69;100.00;71119.84;5072880;28;20569;-81
2022/07/29 03:51:17;;;;;;;6.50;3.92;;;;;;;-145.69;100.00;71129.78;5073016;28;20229;-79
2022/07/29 03:53:49;;;;;;;6.87;4.03;;;;;;;-145.69;100.00;71139.75;5072600;28;20261;-80
2022/07/29 03:56:21;;;;;;;8.95;4.00;;;;;;;-145.69;100.00;71143.72;5072814;28;20199;-79
2022/07/29 03:58:49;;;;;;;8.63;4.10;;;;;;;-145.69;100.00;71143.72;5072769;28;20198;-80
2022/07/29 04:01:17;;;;;;;8.65;4.22;;;;;;;-145.69;100.00;71131.78;5072768;28;20225;-79
2022/07/29 04:03:45;;;;;;;6.50;5.00;;;;;;;-145.69;100.00;71123.81;5076703;28;20202;-80
2022/07/29 04:06:13;;;;;;;7.72;5.13;;;;;;;-145.69;100.00;71131.78;5076766;28;20202;-80
2022/07/29 04:08:40;;;;;;;7.70;4.53;;;;;;;-145.69;100.00;71135.75;5076383;28;20198;-80
2022/07/29 04:11:06;;;;;;;10.17;4.90;;;;;;;-145.69;100.00;71127.81;5076587;28;20201;-80
2022/07/29 04:13:35;;;;;;;8.80;4.90;;;;;;;-145.69;100.00;71129.78;5076303;28;20689;-80
2022/07/29 04:16:02;;;;;;;9.63;4.83;;;;;;;-145.69;100.00;71133.78;5076530;28;20199;-81
2022/07/29 04:18:28;;;;;;;7.30;4.47;;;;;;;-145.69;100.00;71135.75;5076454;28;20276;-79
2022/07/29 04:20:55;;;;;;;8.55;4.95;;;;;;;-145.69;100.00;71141.72;5076280;28;20195;-79
2022/07/29 04:23:21;;;;;;;6.20;4.35;;;;;;;-145.69;100.00;71139.75;5076396;28;20561;-80
2022/07/29 04:25:48;;;;;;;11.98;4.88;;;;;;;-145.69;100.00;71129.78;5075312;28;20201;-79
2022/07/29 04:28:14;;;;;;;8.98;5.38;;;;;;;-145.69;100.00;71123.81;5076344;28;20203;-80
2022/07/29 04:30:42;;;;;;;7.93;5.07;;;;;;;-145.69;100.00;71125.81;5076066;28;20206;-79
2022/07/29 04:33:13;;;;;;;9.30;4.53;;;;;;;-145.69;100.00;71123.81;5076293;28;20913;-80
2022/07/29 04:35:39;;;;;;;10.32;5.43;;;;;;;-145.69;100.00;71117.84;5075822;28;20199;-80
2022/07/29 04:38:07;;;;;;;8.00;5.18;;;;;;;-145.69;100.00;71127.81;5076042;28;20198;-79
2022/07/29 04:40:36;;;;;;;10.38;5.15;;;;;;;-145.69;100.00;71127.81;5076498;28;20209;-80
2022/07/29 04:43:03;;;;;;;5.85;4.35;;;;;;;-145.69;100.00;71123.81;5076113;28;20198;-80
2022/07/29 04:45:30;;;;;;;7.88;5.53;;;;;;;-145.69;100.00;71119.84;5075904;28;20226;-79
2022/07/29 04:47:58;;;;;;;11.73;5.95;;;;;;;-145.69;100.00;71109.91;5076150;28;20202;-79
2022/07/29 04:50:24;;;;;;;8.15;5.80;;;;;;;-145.69;100.00;71111.88;5075834;28;20230;-79
2022/07/29 04:52:51;;;;;;;6.90;5.30;;;;;;;-145.69;100.00;71111.88;5075880;28;20287;-80
2022/07/29 04:55:17;;;;;;;7.70;5.00;;;;;;;-145.69;100.00;71115.88;5075632;28;20198;-82
2022/07/29 04:57:44;;;;;;;9.68;6.20;;;;;;;-145.69;100.00;71107.91;5075100;28;20430;-81
2022/07/29 05:00:11;;;;;;;8.13;5.32;;;;;;;-145.69;100.00;71101.94;5075600;28;20205;-81
2022/07/29 05:02:37;;;;;;;9.32;6.18;;;;;;;-145.69;100.00;71099.94;5075826;28;20203;-82
2022/07/29 05:05:06;;;;;;;11.20;5.07;;;;;;;-145.69;100.00;71099.94;5075777;28;20206;-82
2022/07/29 05:07:33;;;;;;;7.30;5.53;;;;;;;-145.69;100.00;71090.00;5075708;28;20199;-82
2022/07/29 05:10:00;;;;;;;9.80;5.80;;;;;;;-145.69;100.00;71084.03;5075599;28;20209;-82
2022/07/29 05:12:27;;;;;;;6.78;5.10;;;;;;;-145.69;100.00;71074.09;5074421;28;20206;-81
2022/07/29 05:14:54;;;;;;;8.43;5.32;;;;;;;-145.69;100.00;71074.09;5061142;28;20207;-82
2022/07/29 05:17:23;;;;;;;7.43;5.25;;;;;;;-145.69;100.00;71062.13;5055565;28;20306;-83
2022/07/29 05:19:52;;;;;;;14.18;5.32;;;;;;;-145.69;100.00;71052.19;5055311;28;20253;-82
2022/07/29 05:22:24;;;;;;;10.30;5.53;;;;;;;-145.69;100.00;71034.28;5058910;28;20203;-82
2022/07/29 05:24:51;;;;;;;9.07;5.35;;;;;;;-145.69;100.00;71028.31;5075274;28;20206;-81
2022/07/29 05:27:17;;;;;;;9.00;5.40;;;;;;;-145.69;100.00;71014.38;5075611;28;20199;-82
2022/07/29 05:29:44;;;;;;;7.65;4.88;;;;;;;-145.69;100.00;70994.50;5075390;28;20199;-81
2022/07/29 05:32:11;;;;;;;9.68;4.43;;;;;;;-145.69;100.00;70964.66;5075241;28;20206;-81
2022/07/29 05:34:38;;;;;;;9.45;4.45;;;;;;;-145.69;100.00;70964.66;5075116;28;20226;-81
2022/07/29 05:37:05;;;;;;;7.20;3.90;;;;;;;-145.69;100.00;70950.72;5075104;28;20199;-83
2022/07/29 05:39:32;;;;;;;9.40;4.20;;;;;;;-145.69;100.00;70932.81;5074956;28;20642;-82
2022/07/29 05:41:59;;;;;;;5.55;3.90;;;;;;;-145.69;100.00;70912.91;5075034;28;20199;-80
2022/07/29 05:44:25;;;;;;;4.70;3.90;;;;;;;-145.69;100.00;70881.09;5075295;28;20199;-80
2022/07/29 05:46:55;;;;;;;5.20;3.45;;;;;;;-145.69;100.00;70863.19;5074963;28;20199;-79
2022/07/29 05:49:21;;;;;;;7.97;3.22;;;;;;;-145.69;100.00;70859.19;5074778;28;20233;-80
2022/07/29 05:51:49;;;;;;;7.85;3.08;;;;;;;-145.69;100.00;70853.22;5074892;28;20206;-82
2022/07/29 05:54:15;;;;;;;4.40;3.20;;;;;;;-145.69;100.00;70845.28;5074290;28;20296;-82
2022/07/29 05:56:43;;;;;;;4.07;2.88;;;;;;;-145.69;100.00;70837.31;5073809;28;20230;-81
2022/07/29 05:59:09;;;;;;;5.55;3.13;;;;;;;-145.69;100.00;70817.41;5073974;28;20434;-83
2022/07/29 06:01:39;;;;;;;9.07;2.80;;;;;;;-145.69;100.00;70785.59;5074507;28;20198;-82
2022/07/29 06:04:06;;;;;;;7.28;2.80;;;;;;;-145.69;100.00;70747.78;5074579;28;20199;-82
2022/07/29 06:06:32;;;;;;;5.53;2.70;;;;;;;-145.69;100.00;70721.91;5074462;28;20223;-81
2022/07/29 06:09:02;;;;;;;3.42;2.20;;;;;;;-145.69;100.00;70698.03;5073988;28;20439;-81
2022/07/29 06:11:36;;;;;;;3.45;2.10;;;;;;;-145.69;100.00;70678.16;5074384;28;20600;-82
2022/07/29 06:14:06;;;;;;;5.13;2.60;;;;;;;-145.69;100.00;70676.16;5074397;28;20266;-81
2022/07/29 06:16:33;;;;;;;7.97;2.60;;;;;;;-145.69;100.00;70654.28;5074335;28;20203;-81
2022/07/29 06:19:05;;;;;;;3.15;2.13;;;;;;;-145.69;100.00;70628.41;5073604;28;20650;-80
2022/07/29 06:21:33;;;;;;;5.70;2.40;;;;;;;-145.69;100.00;70612.50;5074443;28;20223;-81
2022/07/29 06:23:59;;;;;;;5.95;2.30;;;;;;;-145.69;100.00;70596.59;5073511;28;20285;-80
2022/07/29 06:26:27;;;;;;;6.28;2.08;;;;;;;-145.69;100.00;70570.72;5073919;28;20198;-80
2022/07/29 06:28:56;;;;;;;6.78;2.15;;;;;;;-145.69;100.00;70538.88;5073883;28;20205;-81
2022/07/29 06:31:24;;;;;;;10.82;2.38;;;;;;;-145.69;100.00;70511.03;5073919;28;20302;-79
2022/07/29 06:33:51;;;;;;;3.60;2.00;;;;;;;-145.69;100.00;70451.34;5073799;28;20230;-79
2022/07/29 06:36:20;;;;;;;5.60;2.10;;;;;;;-145.69;100.00;70433.44;5073500;28;20202;-79
2022/07/29 06:38:46;;;;;;;3.05;2.00;;;;;;;-145.69;100.00;70429.47;5073928;28;20210;-79
2022/07/29 06:41:17;;;;;;;3.30;1.95;;;;;;;-145.69;100.00;70385.69;5073477;28;20194;-79
2022/07/29 06:43:45;;;;;;;4.03;1.90;;;;;;;-145.69;100.00;70316.06;5072983;28;20542;-80
2022/07/29 06:46:14;;;;;;;3.20;1.90;;;;;;;-145.69;95.81;70240.47;5073466;28;20206;-79
2022/07/29 06:48:47;;;;;;;4.35;1.70;;;;;;;-145.69;93.12;70186.78;5073494;28;20199;-79
2022/07/29 06:51:13;;;;;;;3.55;1.70;;;;;;;-145.69;90.46;70141.03;5070773;28;20627;-79
2022/07/29 06:53:43;;;;;;;3.17;1.60;;;;;;;-145.69;88.09;70137.03;5073052;28;20214;-79
2022/07/29 06:56:12;;;;;;;4.00;1.92;;;;;;;-145.69;88.44;70145.00;5073380;28;20252;-79
2022/07/29 06:58:39;;;;;;;2.95;1.60;;;;;;;-145.69;88.26;70180.81;5073507;28;20241;-79
2022/07/29 07:01:07;;;;;;;4.63;2.28;;;;;;;-145.69;88.12;70214.63;5073355;28;20951;-80
2022/07/29 07:03:33;;;;;;;3.85;1.95;;;;;;;-145.69;87.00;70236.50;5073635;28;20206;-79
2022/07/29 07:06:03;;;;;;;3.20;1.98;;;;;;;-145.69;85.12;70222.56;5073357;28;20301;-79
2022/07/29 07:08:30;;;;;;;2.03;1.60;;;;;;;-145.69;83.21;70216.63;5073373;28;20665;-79
2022/07/29 07:10:56;;;;;;;6.55;1.98;;;;;;;-145.69;79.70;70232.53;5073473;28;20207;-79
2022/07/29 07:13:23;;;;;;;4.90;1.60;;;;;;;-145.69;79.92;70240.47;5072990;28;20693;-79
2022/07/29 07:15:52;;;;;;;1.50;1.40;;;;;;;-145.69;79.34;70230.53;5073400;28;20211;-79
2022/07/29 07:18:19;;;;;;;4.30;1.80;;;;;;;-145.69;80.32;70224.56;5073197;28;20766;-79
2022/07/29 07:20:48;;;;;;;3.67;1.98;;;;;;;-145.69;77.69;70218.59;5073248;28;20445;-79
2022/07/29 07:23:16;;;;;;;2.03;1.40;;;;;;;-145.69;73.70;70192.75;5068471;28;20692;-79
2022/07/29 07:25:43;;;;;;;3.67;1.98;;;;;;;-145.69;63.41;70212.63;5073028;28;20213;-78
2022/07/29 07:28:09;;;;;;;3.75;1.92;;;;;;;-145.69;65.96;70214.63;5072932;28;20225;-79
2022/07/29 07:30:36;;;;;;;4.65;1.65;;;;;;;-145.69;70.21;70188.75;5073172;28;20199;-79
2022/07/29 07:33:02;;;;;;;2.80;1.70;;;;;;;-145.69;76.02;70127.09;5073053;28;20202;-79
2022/07/29 07:35:29;;;;;;;4.18;1.67;;;;;;;-145.69;74.39;70180.81;5072752;28;20338;-79
2022/07/29 07:37:56;;;;;;;4.32;1.92;;;;;;;-145.69;63.24;70176.81;5073050;28;20206;-79
2022/07/29 07:40:24;;;;;;;6.35;2.00;;;;;;;-145.69;67.15;70158.94;5072981;28;20203;-79
2022/07/29 07:42:51;;;;;;;5.10;1.95;;;;;;;-145.69;69.60;70208.66;5073097;28;20556;-80
2022/07/29 07:45:17;;;;;;;5.05;1.85;;;;;;;-145.69;71.13;70202.69;5073050;28;20202;-78
2022/07/29 07:47:44;;;;;;;5.65;2.17;;;;;;;-145.69;70.53;70172.84;5073025;28;20230;-78
2022/07/29 07:50:12;;;;;;;2.95;1.83;;;;;;;-145.69;73.75;70166.88;5072221;28;20231;-78
2022/07/29 07:52:47;;;;;;;3.83;1.90;;;;;;;-145.69;69.22;70206.66;5072511;28;20206;-78
2022/07/29 07:55:14;;;;;;;9.52;2.20;;;;;;;-145.69;69.95;70206.66;5072772;28;20585;-79
2022/07/29 07:57:42;;;;;;;6.80;2.05;;;;;;;-145.69;71.11;70212.63;5072960;28;20206;-78
2022/07/29 08:00:09;;;;;;;3.58;2.05;;;;;;;-145.69;68.94;70204.69;5072550;28;20203;-78
2022/07/29 08:02:35;;;;;;;2.83;1.92;;;;;;;-145.69;71.56;70236.50;5072777;28;20420;-79
2022/07/29 08:05:02;;;;;;;2.78;1.67;;;;;;;-145.69;72.48;70216.63;5072886;28;20240;-79
2022/07/29 08:07:29;;;;;;;5.95;1.98;;;;;;;-145.69;71.05;70176.81;5071928;28;20197;-78
2022/07/29 08:09:55;;;;;;;5.45;2.53;;;;;;;-145.69;70.58;70180.81;5072997;28;20199;-79
2022/07/29 08:12:21;;;;;;;7.60;2.30;;;;;;;-145.69;69.25;70172.84;5071863;28;20206;-78
2022/07/29 08:14:49;;;;;;;4.65;2.08;;;;;;;-145.69;65.34;70148.97;5072505;28;20233;-78
2022/07/29 08:17:16;;;;;;;3.47;2.08;;;;;;;-145.69;67.96;70184.78;5072548;28;20815;-79
2022/07/29 08:19:42;;;;;;;3.83;2.00;;;;;;;-145.69;62.84;70162.91;5071476;28;20513;-79
2022/07/29 08:22:09;;;;;;;7.10;1.98;;;;;;;-145.69;62.89;70172.84;5072530;28;20221;-78
2022/07/29 08:24:51;;;;;;;5.30;2.17;;;;;;;-145.69;63.79;70172.84;5071186;28;20538;-79
2022/07/29 08:27:19;;;;;;;2.92;1.80;;;;;;;-145.69;65.20;70113.16;5070921;28;20229;-79
2022/07/29 08:29:45;;;;;;;2.92;2.28;;;;;;;-145.69;65.26;70093.28;5071537;28;20199;-78
2022/07/29 08:32:13;;;;;;;3.70;2.35;;;;;;;-145.69;60.72;70111.19;5071441;28;20657;-79
2022/07/29 08:34:39;;;;;;;5.25;2.50;;;;;;;-145.69;63.64;70087.31;5071322;28;20245;-78
2022/07/29 08:37:06;;;;;;;5.30;1.88;;;;;;;-145.69;62.82;70061.44;5071491;28;20199;-78
2022/07/29 08:39:32;;;;;;;5.10;2.30;;;;;;;-145.69;58.92;70091.28;5071977;28;20195;-80
2022/07/29 08:41:59;;;;;;;4.63;2.15;;;;;;;-145.69;61.27;70121.13;5072224;28;20199;-78
2022/07/29 08:44:26;;;;;;;7.78;1.90;;;;;;;-145.69;60.06;70148.97;5072468;28;20206;-79
2022/07/29 08:46:53;;;;;;;4.88;2.00;;;;;;;-145.69;62.04;70160.91;5072227;28;20205;-79
2022/07/29 08:49:20;;;;;;;4.45;2.35;;;;;;;-145.69;66.46;70143.00;5075166;28;20242;-79
2022/07/29 08:51:47;;;;;;;2.80;1.95;;;;;;;-145.69;62.76;70145.00;5076227;28;20199;-79
2022/07/29 08:54:19;;;;;;;4.78;2.10;;;;;;;-145.69;63.81;70105.22;5075973;28;20222;-79
2022/07/29 08:56:48;;;;;;;3.67;2.15;;;;;;;-145.69;60.18;70079.34;5075974;28;20203;-79
2022/07/29 08:59:16;;;;;;;9.30;2.67;;;;;;;-145.69;57.09;70085.31;5075557;28;20199;-79
2022/07/29 09:01:44;;;;;;;2.90;2.00;;;;;;;-145.69;59.88;70105.22;5075653;28;20225;-78
2022/07/29 09:04:12;;;;;;;5.05;2.50;;;;;;;-145.69;60.11;70121.13;5075845;28;20203;-78
2022/07/29 09:06:44;;;;;;;3.15;2.20;;;;;;;-145.69;61.26;70067.41;5075893;28;20205;-79
2022/07/29 09:09:11;;;;;;;7.35;2.40;;;;;;;-145.69;56.88;70115.16;5075746;28;20230;-79
2022/07/29 09:11:38;;;;;;;3.33;2.15;;;;;;;-145.69;57.20;70087.31;5075269;28;20562;-74
2022/07/29 09:14:05;;;;;;;9.70;2.17;;;;;;;-145.69;56.40;70065.44;5075683;28;20230;-79
2022/07/29 09:16:48;;;;;;;6.50;1.98;;;;;;;-145.69;58.30;70091.28;5075380;28;20232;-79
2022/07/29 09:19:25;;;;;;;7.45;2.20;;;;;;;-145.69;56.93;70049.50;5074206;28;20233;-79
2022/07/29 09:21:59;;;;;;;4.80;2.15;;;;;;;-145.69;55.04;69983.88;5075599;28;20211;-80
2022/07/29 09:24:27;;;;;;;4.57;1.90;;;;;;;-145.69;52.12;69973.94;5075418;28;20289;-79
2022/07/29 09:26:53;;;;;;;8.68;2.42;;;;;;;-145.69;51.71;70029.63;5075520;28;20566;-78
2022/07/29 09:29:21;;;;;;;5.53;2.20;;;;;;;-145.69;53.11;70009.72;5070180;28;20199;-77
2022/07/29 09:31:51;;;;;;;5.68;2.10;;;;;;;-145.69;53.11;70023.66;5055268;28;20195;-80
2022/07/29 09:34:22;;;;;;;5.30;1.65;;;;;;;-145.69;53.01;69979.91;5055193;28;20623;-79
2022/07/29 09:36:49;;;;;;;4.18;1.80;;;;;;;-145.69;50.52;69910.28;5055277;28;20279;-80
2022/07/29 09:39:29;;;;;;;8.98;1.80;;;;;;;-145.69;51.97;69944.09;5054975;28;20195;-80
2022/07/29 09:41:57;;;;;;;3.92;1.92;;;;;;;-145.69;51.81;69936.13;5055113;28;20227;-80
2022/07/29 09:44:24;;;;;;;3.65;1.60;;;;;;;-145.69;48.87;69838.66;5055112;28;20199;-79
2022/07/29 09:46:56;;;;;;;6.45;2.05;;;;;;;-145.69;47.46;69928.19;5055063;28;20204;-79
2022/07/29 09:49:22;;;;;;;4.80;1.90;;;;;;;-145.69;47.99;69950.06;5054721;28;20234;-78
2022/07/29 09:52:00;;;;;;;4.43;1.80;;;;;;;-145.69;48.67;69993.81;5054862;28;20581;-78
2022/07/29 09:54:29;;;;;;;6.20;1.90;;;;;;;-145.69;50.63;70005.75;5054979;28;20360;-78
2022/07/29 09:56:56;;;;;;;5.60;1.98;;;;;;;-145.69;51.01;70013.72;5054708;28;20253;-79
2022/07/29 09:59:26;;;;;;;4.53;2.20;;;;;;;-145.69;52.14;70013.72;5054792;28;20200;-79
2022/07/29 10:01:53;;;;;;;5.35;2.50;;;;;;;-145.69;50.13;69989.84;5054596;28;20200;-79
2022/07/29 10:04:20;;;;;;;4.95;1.95;;;;;;;-145.69;50.19;69934.16;5069395;28;20199;-78
2022/07/29 10:06:57;;;;;;;2.13;1.80;;;;;;;-145.69;50.33;69914.25;5074677;28;20211;-78
2022/07/29 10:09:24;;;;;;;5.25;2.00;;;;;;;-145.69;50.34;69910.28;5074525;28;20206;-79
2022/07/29 10:12:06;;;;;;;4.50;1.85;;;;;;;-145.69;49.74;69944.09;5074397;28;20222;-79
2022/07/29 10:14:33;;;;;;;3.85;2.10;;;;;;;-145.69;50.77;69960.00;5074252;28;20615;-79
2022/07/29 10:17:01;;;;;;;5.13;1.95;;;;;;;-145.69;51.54;69900.34;5074264;28;20199;-78
2022/07/29 10:19:29;;;;;;;3.20;1.90;;;;;;;-145.69;51.05;69796.91;5074400;28;20237;-78
2022/07/29 10:21:57;;;;;;;3.08;1.60;;;;;;;-145.69;49.74;69902.31;5074066;28;20206;-80
2022/07/29 10:24:24;;;;;;;5.80;2.05;;;;;;;-145.69;47.55;69936.13;5071458;28;20205;-80
2022/07/29 10:26:51;;;;;;;4.68;1.80;;;;;;;-145.69;52.87;69973.94;5073775;28;20202;-80
2022/07/29 10:29:19;;;;;;;4.68;2.10;;;;;;;-145.69;52.06;69944.09;5072680;28;20787;-80
2022/07/29 10:31:58;;;;;;;6.07;2.20;;;;;;;-145.69;51.67;69960.00;5072616;28;20194;-81
2022/07/29 10:34:35;;;;;;;3.85;2.00;;;;;;;-145.69;51.91;70001.78;5073585;28;20221;-80
2022/07/29 10:37:09;;;;;;;4.30;2.35;;;;;;;-145.69;51.72;70033.59;5074016;28;20210;-80
2022/07/29 10:39:52;;;;;;;3.88;2.05;;;;;;;-145.69;54.35;70017.69;5073914;28;20206;-80
2022/07/29 10:42:21;;;;;;;6.28;2.13;;;;;;;-145.69;55.31;70025.66;5073985;28;20199;-80
2022/07/29 10:44:50;;;;;;;3.95;1.80;;;;;;;-145.69;53.34;70041.56;5071703;28;20543;-82
2022/07/29 10:47:23;;;;;;;4.53;1.77;;;;;;;-145.69;54.89;70027.63;5072944;28;20206;-81
2022/07/29 10:49:58;;;;;;;5.50;1.90;;;;;;;-145.69;52.60;69963.97;5072708;28;20222;-81
2022/07/29 10:52:27;;;;;;;2.83;1.70;;;;;;;-145.69;52.79;70003.75;5069378;28;20202;-81
2022/07/29 10:54:55;;;;;;;3.28;1.75;;;;;;;-145.69;53.09;70023.66;5065672;28;20310;-81
2022/07/29 10:57:28;;;;;;;7.90;2.30;;;;;;;-145.69;54.28;70013.72;5052925;28;20203;-81
2022/07/29 11:00:33;;;;;;;7.53;2.08;;;;;;;-145.69;54.07;70021.66;5052834;28;20286;-81
2022/07/29 11:03:00;;;;;;;4.50;1.90;;;;;;;-145.69;53.12;69954.03;5052380;28;20210;-80
2022/07/29 11:05:29;;;;;;;7.07;2.05;;;;;;;-145.69;53.82;69886.41;5072697;28;20285;-80
2022/07/29 11:08:19;;;;;;;3.83;2.00;;;;;;;-145.69;51.48;69860.53;5073401;28;20530;-81
2022/07/29 11:10:46;;;;;;;8.80;2.00;;;;;;;-145.69;49.60;69854.59;5072823;28;20293;-80
2022/07/29 11:13:13;;;;;;;3.40;2.00;;;;;;;-145.69;50.97;69862.53;5073446;28;20203;-80
2022/07/29 11:15:54;;;;;;;4.85;1.70;;;;;;;-145.69;52.01;69906.28;5073145;28;20234;-80
2022/07/29 11:18:21;;;;;;;5.03;2.00;;;;;;;-145.69;50.03;69800.88;5073451;28;20245;-81
2022/07/29 11:20:49;;;;;;;6.88;1.92;;;;;;;-145.69;48.57;69786.94;5072942;28;20195;-81